createdAt,value
2017-12-14T00:01:34.221Z,14.17
2017-12-14T00:03:59.962Z,13.53
2017-12-14T00:06:25.726Z,14.90
2017-12-14T00:08:51.503Z,14.47
2017-12-14T00:11:17.259Z,13.33
2017-12-14T00:13:42.996Z,16.43
2017-12-14T00:16:08.765Z,14.77
2017-12-14T00:18:34.533Z,13.80
2017-12-14T00:21:00.290Z,11.20
2017-12-14T00:23:26.068Z,13.87
2017-12-14T00:25:51.838Z,13.27
2017-12-14T00:28:17.609Z,10.13
2017-12-14T00:30:43.371Z,8.40
2017-12-14T00:33:09.135Z,7.17
2017-12-14T00:35:34.889Z,7.77
2017-12-14T00:38:00.658Z,7.77
2017-12-14T00:40:26.417Z,8.87
2017-12-14T00:42:52.194Z,6.97
2017-12-14T00:45:17.952Z,5.33
2017-12-14T00:47:43.719Z,6.40
2017-12-14T00:50:09.499Z,6.20
2017-12-14T00:52:35.256Z,6.17
2017-12-14T00:55:01.021Z,6.67
2017-12-14T00:57:26.790Z,6.03
2017-12-14T00:59:52.557Z,5.97
2017-12-14T01:02:18.303Z,6.13
2017-12-14T01:04:44.068Z,7.83
2017-12-14T01:07:09.840Z,8.73
2017-12-14T01:09:35.595Z,5.93
2017-12-14T01:12:01.350Z,6.00
2017-12-14T01:14:27.169Z,5.33
2017-12-14T01:16:52.887Z,6.57
2017-12-14T01:19:18.640Z,5.90
2017-12-14T01:21:44.401Z,6.10
2017-12-14T01:24:10.148Z,5.73
2017-12-14T01:26:35.916Z,5.63
2017-12-14T01:29:01.652Z,5.23
2017-12-14T01:31:27.412Z,7.40
2017-12-14T01:33:53.188Z,3.90
2017-12-14T01:36:18.939Z,5.97
2017-12-14T01:38:44.693Z,4.90
2017-12-14T01:41:10.452Z,7.27
2017-12-14T01:43:36.210Z,6.53
2017-12-14T01:46:01.956Z,5.73
2017-12-14T01:48:27.736Z,6.30
2017-12-14T01:50:53.488Z,8.10
2017-12-14T01:53:19.257Z,7.37
2017-12-14T01:55:45.000Z,8.37
2017-12-14T01:58:10.754Z,9.83
2017-12-14T02:00:36.507Z,14.77
2017-12-14T02:03:02.271Z,19.90
2017-12-14T02:05:28.024Z,34.03
2017-12-14T02:07:53.796Z,46.03
2017-12-14T02:10:19.541Z,31.33
2017-12-14T02:12:45.290Z,20.67
2017-12-14T02:15:11.052Z,13.10
2017-12-14T02:17:36.805Z,15.00
2017-12-14T02:20:02.568Z,15.27
2017-12-14T02:22:28.320Z,15.40
2017-12-14T02:24:54.075Z,13.80
2017-12-14T02:27:19.822Z,14.17
2017-12-14T02:29:45.586Z,13.63
2017-12-14T02:32:11.350Z,14.43
2017-12-14T02:34:37.112Z,13.60
2017-12-14T02:37:02.874Z,13.13
2017-12-14T02:39:28.643Z,14.37
2017-12-14T02:41:54.411Z,14.00
2017-12-14T02:44:20.161Z,20.37
2017-12-14T02:46:45.904Z,15.33
2017-12-14T02:49:11.655Z,18.33
2017-12-14T02:51:37.409Z,18.90
2017-12-14T02:54:03.165Z,21.93
2017-12-14T02:56:28.949Z,23.60
2017-12-14T02:58:54.690Z,26.10
2017-12-14T03:01:20.460Z,22.63
2017-12-14T03:03:46.210Z,26.63
2017-12-14T03:06:11.960Z,24.03
2017-12-14T03:08:37.716Z,21.93
2017-12-14T03:11:03.549Z,30.50
2017-12-14T03:13:29.309Z,19.10
2017-12-14T03:15:55.081Z,16.87
2017-12-14T03:18:20.827Z,28.20
2017-12-14T03:20:46.617Z,18.03
2017-12-14T03:23:12.379Z,18.07
2017-12-14T03:25:38.132Z,18.60
2017-12-14T03:28:03.885Z,14.80
2017-12-14T03:30:29.632Z,14.50
2017-12-14T03:32:55.401Z,10.70
2017-12-14T03:35:21.165Z,8.83
2017-12-14T03:37:46.918Z,7.40
2017-12-14T03:40:12.697Z,9.67
2017-12-14T03:42:38.443Z,12.57
2017-12-14T03:45:04.210Z,6.97
2017-12-14T03:47:29.990Z,7.23
2017-12-14T03:49:55.749Z,6.67
2017-12-14T03:52:21.535Z,4.57
2017-12-14T03:54:47.266Z,6.07
2017-12-14T03:57:13.037Z,3.67
2017-12-14T03:59:38.783Z,5.37
2017-12-14T04:02:04.539Z,8.90
2017-12-14T04:04:30.312Z,9.30
2017-12-14T04:06:56.076Z,8.53
2017-12-14T04:09:21.832Z,9.27
2017-12-14T04:11:47.604Z,8.23
2017-12-14T04:14:13.359Z,6.27
2017-12-14T04:16:39.213Z,10.67
2017-12-14T04:19:05.686Z,10.50
2017-12-14T04:21:32.341Z,8.85
2017-12-14T04:23:58.707Z,9.30
2017-12-14T04:26:25.095Z,7.72
2017-12-14T04:28:51.814Z,6.18
2017-12-14T04:31:17.610Z,6.18
2017-12-14T04:33:43.388Z,9.63
2017-12-14T04:36:09.163Z,7.93
2017-12-14T04:38:34.926Z,15.47
2017-12-14T04:41:00.687Z,12.83
2017-12-14T04:43:26.453Z,12.43
2017-12-14T04:45:52.206Z,13.17
2017-12-14T04:48:17.965Z,14.73
2017-12-14T04:50:43.737Z,19.83
2017-12-14T04:53:09.508Z,18.20
2017-12-14T04:55:35.322Z,14.20
2017-12-14T04:58:01.087Z,17.03
2017-12-14T05:00:26.842Z,27.63
2017-12-14T05:02:52.608Z,23.63
2017-12-14T05:05:18.382Z,22.67
2017-12-14T05:07:44.168Z,18.00
2017-12-14T05:10:09.939Z,23.87
2017-12-14T05:12:35.746Z,20.17
2017-12-14T05:15:01.491Z,25.47
2017-12-14T05:17:27.239Z,30.37
2017-12-14T05:19:53.020Z,21.13
2017-12-14T05:22:18.803Z,24.53
2017-12-14T05:24:44.563Z,21.50
2017-12-14T05:27:10.335Z,21.23
2017-12-14T05:29:36.110Z,18.60
2017-12-14T05:32:01.866Z,13.17
2017-12-14T05:34:27.661Z,12.93
2017-12-14T05:36:53.415Z,16.77
2017-12-14T05:39:19.204Z,17.60
2017-12-14T05:41:44.946Z,24.07
2017-12-14T05:44:10.730Z,18.67
2017-12-14T05:46:36.500Z,16.43
2017-12-14T05:49:02.291Z,21.60
2017-12-14T05:51:28.038Z,18.20
2017-12-14T05:53:53.807Z,19.13
2017-12-14T05:56:19.591Z,20.63
2017-12-14T05:58:45.372Z,26.67
2017-12-14T06:01:11.148Z,23.93
2017-12-14T06:03:36.907Z,21.63
2017-12-14T06:06:02.751Z,29.17
2017-12-14T06:08:28.516Z,19.57
2017-12-14T06:10:54.287Z,16.63
2017-12-14T06:13:20.047Z,22.30
2017-12-14T06:15:45.816Z,20.33
2017-12-14T06:18:11.584Z,29.23
2017-12-14T06:20:37.359Z,22.33
2017-12-14T06:23:03.148Z,18.00
2017-12-14T06:25:28.946Z,22.90
2017-12-14T06:27:54.699Z,19.80
2017-12-14T06:30:20.467Z,17.47
2017-12-14T06:32:46.228Z,21.10
2017-12-14T06:35:12.002Z,27.87
2017-12-14T06:37:37.752Z,29.33
2017-12-14T06:40:03.525Z,19.47
2017-12-14T06:42:29.291Z,19.03
2017-12-14T06:44:55.088Z,23.97
2017-12-14T06:47:27.822Z,29.40
2017-12-14T06:49:53.604Z,20.80
2017-12-14T06:52:19.364Z,28.10
2017-12-14T06:54:45.127Z,23.87
2017-12-14T06:57:10.892Z,30.23
2017-12-14T06:59:36.655Z,21.23
2017-12-14T07:02:02.411Z,19.60
2017-12-14T07:04:28.167Z,31.90
2017-12-14T07:06:53.933Z,27.03
2017-12-14T07:09:19.742Z,21.17
2017-12-14T07:11:45.502Z,28.43
2017-12-14T07:14:11.257Z,21.13
2017-12-14T07:16:37.038Z,26.60
2017-12-14T07:19:02.795Z,29.67
2017-12-14T07:21:28.570Z,18.83
2017-12-14T07:23:54.351Z,23.27
2017-12-14T07:26:20.106Z,18.27
2017-12-14T07:28:45.875Z,26.33
2017-12-14T07:31:11.627Z,23.33
2017-12-14T07:33:38.364Z,26.73
2017-12-14T07:36:04.162Z,21.00
2017-12-14T07:38:29.942Z,28.27
2017-12-14T07:40:55.718Z,27.77
2017-12-14T07:43:21.507Z,25.93
2017-12-14T07:46:08.303Z,25.60
2017-12-14T07:48:34.084Z,21.73
2017-12-14T07:50:59.872Z,31.77
2017-12-14T07:53:25.659Z,27.93
2017-12-14T07:55:51.437Z,31.27
2017-12-14T07:58:17.202Z,30.57
2017-12-14T08:00:42.958Z,29.40
2017-12-14T08:03:08.740Z,32.60
2017-12-14T08:05:34.522Z,32.70
2017-12-14T08:08:00.286Z,27.27
2017-12-14T08:10:26.043Z,34.23
2017-12-14T08:12:51.801Z,30.60
2017-12-14T08:15:17.555Z,25.20
2017-12-14T08:17:43.367Z,25.40
2017-12-14T08:20:09.133Z,27.97
2017-12-14T08:22:34.917Z,25.77
2017-12-14T08:25:00.701Z,28.93
2017-12-14T08:27:26.459Z,22.97
2017-12-14T08:29:52.231Z,33.83
2017-12-14T08:32:17.997Z,35.23
2017-12-14T08:34:43.775Z,29.07
2017-12-14T08:37:09.535Z,26.80
2017-12-14T08:39:35.333Z,30.00
2017-12-14T08:42:01.095Z,26.33
2017-12-14T08:44:26.860Z,33.73
2017-12-14T08:46:52.620Z,29.70
2017-12-14T08:49:18.375Z,29.60
2017-12-14T08:51:44.135Z,27.67
2017-12-14T08:54:09.895Z,30.07
2017-12-14T08:56:35.658Z,35.03
2017-12-14T08:59:01.414Z,28.73
2017-12-14T09:01:27.172Z,34.73
2017-12-14T09:03:52.928Z,26.80
2017-12-14T09:06:18.710Z,31.17
2017-12-14T09:08:44.467Z,27.67
2017-12-14T09:11:10.236Z,31.03
2017-12-14T09:13:35.982Z,32.87
2017-12-14T09:16:01.747Z,31.73
2017-12-14T09:18:27.498Z,30.00
2017-12-14T09:20:53.280Z,35.27
2017-12-14T09:23:19.055Z,28.47
2017-12-14T09:25:44.827Z,33.60
2017-12-14T09:28:10.596Z,23.20
2017-12-14T09:30:36.382Z,29.23
2017-12-14T09:33:02.141Z,27.67
2017-12-14T09:35:27.894Z,28.00
2017-12-14T09:37:53.662Z,24.97
2017-12-14T09:40:19.414Z,22.27
2017-12-14T09:42:45.189Z,23.30
2017-12-14T09:45:10.955Z,16.57
2017-12-14T09:47:36.731Z,23.40
2017-12-14T09:50:02.499Z,24.87
2017-12-14T09:52:28.266Z,18.47
2017-12-14T09:54:54.019Z,19.40
2017-12-14T09:57:19.783Z,20.77
2017-12-14T09:59:45.531Z,19.07
2017-12-14T10:02:11.315Z,21.47
2017-12-14T10:04:37.067Z,19.97
2017-12-14T10:07:02.867Z,16.33
2017-12-14T10:09:28.624Z,17.70
2017-12-14T10:11:54.371Z,18.47
2017-12-14T10:14:20.140Z,13.00
2017-12-14T10:16:45.904Z,21.20
2017-12-14T10:19:11.683Z,16.77
2017-12-14T10:21:37.447Z,13.63
2017-12-14T10:24:03.225Z,11.67
2017-12-14T10:26:28.970Z,15.03
2017-12-14T10:28:54.746Z,8.67
2017-12-14T10:31:20.534Z,12.13
2017-12-14T10:33:46.299Z,9.17
2017-12-14T10:36:12.058Z,9.20
2017-12-14T10:38:37.807Z,10.33
2017-12-14T10:41:06.243Z,10.27
2017-12-14T10:43:33.522Z,5.82
2017-12-14T10:45:59.310Z,10.80
2017-12-14T10:48:25.212Z,6.83
2017-12-14T10:50:59.697Z,6.40
2017-12-14T10:53:28.232Z,9.70
2017-12-14T10:55:55.899Z,6.87
2017-12-14T10:58:21.781Z,8.25
2017-12-14T11:00:53.731Z,7.63
2017-12-14T11:03:19.766Z,7.50
2017-12-14T11:05:49.212Z,6.45
2017-12-14T11:08:15.492Z,8.52
2017-12-14T11:10:44.051Z,5.35
2017-12-14T11:13:10.946Z,8.20
2017-12-14T11:15:36.768Z,6.22
2017-12-14T11:18:02.531Z,6.13
2017-12-14T11:20:28.311Z,6.13
2017-12-14T11:22:54.056Z,5.83
2017-12-14T11:25:19.830Z,6.53
2017-12-14T11:27:45.606Z,5.13
2017-12-14T11:30:11.512Z,5.37
2017-12-14T11:32:37.280Z,5.57
2017-12-14T11:35:03.142Z,5.40
2017-12-14T11:37:28.907Z,6.07
2017-12-14T11:39:54.675Z,5.63
2017-12-14T11:42:20.500Z,5.90
2017-12-14T11:44:46.293Z,7.13
2017-12-14T11:47:12.076Z,6.67
2017-12-14T11:49:37.843Z,6.90
2017-12-14T11:52:03.608Z,7.87
2017-12-14T11:54:29.368Z,6.83
2017-12-14T11:56:55.149Z,7.57
2017-12-14T11:59:20.949Z,10.20
2017-12-14T12:01:46.835Z,7.97
2017-12-14T12:04:12.656Z,8.00
2017-12-14T12:06:38.428Z,8.17
2017-12-14T12:09:04.243Z,8.50
2017-12-14T12:11:30.109Z,9.37
2017-12-14T12:13:55.884Z,9.87
2017-12-14T12:16:21.683Z,10.80
2017-12-14T12:18:47.460Z,9.00
2017-12-14T12:21:13.243Z,9.17
2017-12-14T12:23:39.015Z,10.20
2017-12-14T12:26:04.788Z,10.37
2017-12-14T12:28:30.548Z,9.67
2017-12-14T12:30:56.307Z,11.80
2017-12-14T12:33:22.104Z,11.83
2017-12-14T12:35:47.865Z,10.60
2017-12-14T12:38:13.628Z,10.50
2017-12-14T12:40:39.400Z,13.47
2017-12-14T12:43:05.352Z,10.90
2017-12-14T12:45:31.209Z,13.23
2017-12-14T12:47:57.105Z,11.27
2017-12-14T12:50:22.973Z,11.97
2017-12-14T12:52:48.770Z,12.13
2017-12-14T12:55:14.531Z,12.27
2017-12-14T12:57:40.391Z,11.63
2017-12-14T13:00:06.213Z,11.67
2017-12-14T13:02:31.980Z,12.80
2017-12-14T13:04:57.743Z,12.47
2017-12-14T13:07:23.542Z,11.93
2017-12-14T13:09:49.275Z,14.63
2017-12-14T13:12:15.047Z,11.63
2017-12-14T13:14:40.804Z,13.83
2017-12-14T13:17:06.566Z,11.33
2017-12-14T13:19:32.315Z,12.47
2017-12-14T13:21:58.071Z,12.33
2017-12-14T13:24:23.836Z,10.90
2017-12-14T13:26:49.583Z,13.50
2017-12-14T13:29:15.358Z,12.17
2017-12-14T13:31:41.124Z,12.17
2017-12-14T13:34:06.899Z,10.37
2017-12-14T13:36:32.660Z,12.43
2017-12-14T13:38:58.447Z,11.33
2017-12-14T13:41:24.207Z,10.17
2017-12-14T13:43:49.973Z,11.03
2017-12-14T13:46:15.739Z,10.43
2017-12-14T13:48:41.515Z,9.10
2017-12-14T13:51:07.285Z,8.90
2017-12-14T13:53:33.044Z,8.70
2017-12-14T13:55:58.822Z,7.37
2017-12-14T13:58:24.695Z,7.87
2017-12-14T14:00:50.644Z,8.73
2017-12-14T14:03:16.507Z,10.73
2017-12-14T14:05:42.331Z,9.13
2017-12-14T14:08:08.124Z,10.17
2017-12-14T14:10:33.956Z,9.37
2017-12-14T14:12:59.863Z,12.63
2017-12-14T14:15:25.644Z,8.97
2017-12-14T14:17:51.511Z,10.07
2017-12-14T14:20:17.340Z,9.23
2017-12-14T14:22:43.104Z,9.53
2017-12-14T14:25:08.880Z,7.63
2017-12-14T14:27:34.670Z,6.50
2017-12-14T14:30:00.441Z,7.00
2017-12-14T14:32:26.235Z,6.83
2017-12-14T14:34:51.990Z,7.57
2017-12-14T14:37:17.755Z,10.93
2017-12-14T14:39:43.549Z,8.20
2017-12-14T14:42:09.308Z,8.27
2017-12-14T14:44:35.192Z,9.97
2017-12-14T14:47:01.093Z,10.50
2017-12-14T14:49:26.859Z,10.83
2017-12-14T14:51:52.751Z,11.13
2017-12-14T14:54:18.575Z,11.73
2017-12-14T14:56:44.555Z,12.43
2017-12-14T14:59:10.375Z,15.65
2017-12-14T15:01:36.122Z,15.50
2017-12-14T15:04:01.879Z,17.27
2017-12-14T15:06:27.798Z,15.20
2017-12-14T15:08:53.613Z,21.87
2017-12-14T15:11:19.372Z,19.83
2017-12-14T15:13:45.262Z,20.20
2017-12-14T15:16:11.007Z,20.40
2017-12-14T15:18:36.853Z,19.73
2017-12-14T15:21:02.764Z,19.80
2017-12-14T15:23:28.544Z,16.33
2017-12-14T15:25:54.360Z,21.63
2017-12-14T15:28:20.268Z,21.27
2017-12-14T15:30:46.027Z,24.10
2017-12-14T15:33:11.799Z,24.20
2017-12-14T15:35:37.551Z,26.27
2017-12-14T15:38:03.307Z,29.77
2017-12-14T15:40:29.136Z,25.90
2017-12-14T15:42:54.903Z,30.33
2017-12-14T15:45:20.667Z,30.53
2017-12-14T15:47:46.437Z,29.53
2017-12-14T15:50:12.378Z,24.70
2017-12-14T15:52:38.214Z,25.07
2017-12-14T15:55:04.884Z,29.17
2017-12-14T15:57:30.642Z,28.70
2017-12-14T15:59:56.403Z,26.80
2017-12-14T16:02:22.151Z,29.23
2017-12-14T16:04:48.000Z,28.90
2017-12-14T16:07:13.772Z,28.60
2017-12-14T16:09:39.569Z,40.93
2017-12-14T16:12:05.375Z,35.73
2017-12-14T16:14:31.148Z,32.27
2017-12-14T16:16:56.931Z,33.93
2017-12-14T16:19:22.981Z,38.77
2017-12-14T16:21:50.080Z,46.42
2017-12-14T16:24:15.867Z,39.03
2017-12-14T16:26:41.685Z,38.60
2017-12-14T16:29:07.446Z,33.03
2017-12-14T16:31:33.234Z,39.20
2017-12-14T16:33:58.994Z,42.20
2017-12-14T16:36:24.755Z,36.67
2017-12-14T16:38:50.517Z,34.77
2017-12-14T16:41:16.447Z,34.17
2017-12-14T16:43:42.237Z,29.93
2017-12-14T16:46:07.995Z,33.07
2017-12-14T16:48:33.821Z,30.67
2017-12-14T16:50:59.569Z,31.97
2017-12-14T16:53:25.330Z,27.10
2017-12-14T16:55:51.151Z,31.50
2017-12-14T16:58:16.972Z,28.60
2017-12-14T17:00:42.739Z,27.67
2017-12-14T17:03:08.610Z,31.83
2017-12-14T17:05:34.493Z,23.57
2017-12-14T17:08:00.298Z,30.20
2017-12-14T17:10:26.055Z,27.90
2017-12-14T17:12:51.823Z,26.93
2017-12-14T17:15:17.566Z,29.27
2017-12-14T17:17:43.335Z,32.40
2017-12-14T17:20:09.075Z,33.93
2017-12-14T17:22:34.831Z,26.37
2017-12-14T17:25:00.586Z,24.37
2017-12-14T17:27:26.355Z,26.43
2017-12-14T17:29:52.231Z,25.33
2017-12-14T17:32:18.324Z,31.13
2017-12-14T17:34:44.140Z,24.73
2017-12-14T17:37:09.903Z,25.67
2017-12-14T17:39:35.652Z,31.07
2017-12-14T17:42:01.442Z,24.80
2017-12-14T17:44:27.211Z,25.23
2017-12-14T17:46:52.968Z,24.73
2017-12-14T17:49:18.726Z,22.37
2017-12-14T17:51:44.503Z,25.17
2017-12-14T17:54:10.291Z,19.27
2017-12-14T17:56:36.071Z,29.53
2017-12-14T17:59:01.840Z,29.13
2017-12-14T18:01:27.603Z,25.10
2017-12-14T18:03:53.378Z,24.40
2017-12-14T18:06:19.144Z,20.67
2017-12-14T18:08:44.899Z,20.17
2017-12-14T18:11:10.694Z,22.20
2017-12-14T18:13:36.467Z,23.50
2017-12-14T18:16:02.227Z,24.47
2017-12-14T18:18:27.995Z,27.13
2017-12-14T18:20:53.744Z,24.97
2017-12-14T18:23:19.525Z,26.13
2017-12-14T18:25:45.295Z,27.00
2017-12-14T18:28:11.095Z,29.23
2017-12-14T18:30:36.863Z,27.50
2017-12-14T18:33:02.657Z,31.00
2017-12-14T18:35:28.408Z,22.53
2017-12-14T18:37:54.196Z,25.70
2017-12-14T18:40:19.980Z,28.67
2017-12-14T18:42:45.759Z,32.10
2017-12-14T18:45:11.551Z,26.40
2017-12-14T18:47:37.311Z,29.50
2017-12-14T18:50:03.074Z,33.03
2017-12-14T18:52:28.831Z,33.63
2017-12-14T18:54:54.603Z,29.57
2017-12-14T18:57:21.147Z,32.42
2017-12-14T18:59:46.948Z,29.73
2017-12-14T19:02:12.714Z,29.50
2017-12-14T19:04:38.477Z,36.93
2017-12-14T19:07:04.261Z,30.90
2017-12-14T19:09:30.019Z,25.77
2017-12-14T19:11:55.816Z,33.70
2017-12-14T19:14:21.576Z,29.00
2017-12-14T19:16:47.352Z,29.97
2017-12-14T19:19:13.112Z,31.63
2017-12-14T19:21:38.904Z,29.70
2017-12-14T19:24:04.677Z,29.47
2017-12-14T19:26:30.447Z,36.90
2017-12-14T19:28:56.191Z,31.80
2017-12-14T19:31:21.999Z,38.43
2017-12-14T19:33:47.756Z,33.43
2017-12-14T19:36:13.559Z,35.73
2017-12-14T19:38:39.314Z,42.47
2017-12-14T19:41:05.103Z,41.13
2017-12-14T19:43:30.896Z,41.33
2017-12-14T19:45:56.680Z,38.20
2017-12-14T19:48:22.470Z,41.10
2017-12-14T19:50:48.231Z,36.17
2017-12-14T19:53:13.992Z,39.20
2017-12-14T19:55:39.767Z,38.83
2017-12-14T19:58:05.547Z,37.17
2017-12-14T20:00:31.332Z,39.40
2017-12-14T20:02:57.099Z,40.30
2017-12-14T20:05:22.853Z,37.20
2017-12-14T20:07:48.618Z,37.90
2017-12-14T20:10:14.381Z,42.20
2017-12-14T20:12:40.155Z,40.27
2017-12-14T20:15:05.933Z,42.63
2017-12-14T20:17:31.703Z,35.80
2017-12-14T20:19:57.458Z,42.67
2017-12-14T20:22:23.235Z,42.10
2017-12-14T20:24:49.013Z,45.70
2017-12-14T20:27:14.809Z,45.87
2017-12-14T20:29:40.587Z,40.67
2017-12-14T20:32:06.346Z,43.70
2017-12-14T20:34:32.106Z,42.23
2017-12-14T20:36:57.884Z,43.90
2017-12-14T20:39:23.655Z,40.30
2017-12-14T20:41:49.419Z,45.57
2017-12-14T20:44:15.223Z,39.77
2017-12-14T20:46:40.994Z,46.10
2017-12-14T20:49:06.743Z,43.63
2017-12-14T20:51:32.502Z,43.30
2017-12-14T20:53:58.327Z,40.40
2017-12-14T20:56:24.078Z,48.50
2017-12-14T20:58:49.931Z,44.13
2017-12-14T21:01:15.699Z,41.67
2017-12-14T21:03:41.460Z,44.03
2017-12-14T21:06:07.240Z,41.23
2017-12-14T21:08:33.012Z,36.17
2017-12-14T21:10:58.822Z,39.30
2017-12-14T21:13:24.580Z,43.40
2017-12-14T21:15:50.351Z,39.10
2017-12-14T21:18:16.130Z,38.93
2017-12-14T21:20:41.912Z,41.27
2017-12-14T21:23:07.697Z,39.67
2017-12-14T21:25:33.455Z,36.97
2017-12-14T21:27:59.247Z,38.37
2017-12-14T21:30:25.018Z,39.90
2017-12-14T21:32:50.819Z,39.17
2017-12-14T21:35:16.578Z,44.73
2017-12-14T21:37:42.354Z,40.57
2017-12-14T21:40:08.116Z,43.93
2017-12-14T21:42:33.893Z,38.87
2017-12-14T21:44:59.673Z,45.10
2017-12-14T21:47:31.690Z,38.50
2017-12-14T21:49:57.490Z,37.90
2017-12-14T21:52:23.268Z,44.00
2017-12-14T21:54:49.016Z,43.90
2017-12-14T21:57:14.799Z,45.33
2017-12-14T21:59:40.591Z,46.30
2017-12-14T22:02:06.371Z,41.37
2017-12-14T22:04:32.148Z,42.00
2017-12-14T22:06:57.910Z,44.17
2017-12-14T22:09:23.684Z,40.63
2017-12-14T22:11:49.445Z,52.53
2017-12-14T22:14:15.216Z,48.27
2017-12-14T22:16:40.989Z,47.00
2017-12-14T22:19:06.763Z,48.87
2017-12-14T22:21:32.531Z,43.43
2017-12-14T22:23:58.300Z,41.87
2017-12-14T22:26:24.065Z,46.93
2017-12-14T22:28:49.815Z,46.37
2017-12-14T22:31:15.582Z,57.13
2017-12-14T22:33:41.351Z,47.30
2017-12-14T22:36:07.156Z,46.53
2017-12-14T22:38:32.909Z,49.60
2017-12-14T22:40:58.674Z,51.60
2017-12-14T22:43:24.432Z,55.10
2017-12-14T22:45:50.208Z,51.40
2017-12-14T22:48:15.969Z,52.70
2017-12-14T22:50:41.738Z,53.37
2017-12-14T22:53:07.507Z,55.07
2017-12-14T22:55:33.280Z,55.30
2017-12-14T22:57:59.032Z,59.43
2017-12-14T23:00:24.838Z,52.60
2017-12-14T23:02:50.595Z,57.10
2017-12-14T23:05:16.350Z,50.70
2017-12-14T23:07:42.122Z,54.83
2017-12-14T23:10:07.904Z,53.30
2017-12-14T23:12:33.666Z,56.83
2017-12-14T23:14:59.428Z,55.87
2017-12-14T23:17:25.203Z,56.70
2017-12-14T23:19:50.962Z,69.83
2017-12-14T23:22:16.735Z,75.23
2017-12-14T23:24:42.488Z,53.63
2017-12-14T23:27:08.255Z,60.93
2017-12-14T23:29:34.003Z,60.53
2017-12-14T23:31:59.811Z,69.07
2017-12-14T23:34:25.599Z,56.87
2017-12-14T23:36:51.390Z,51.33
2017-12-14T23:39:17.162Z,63.83
2017-12-14T23:41:42.937Z,56.03
2017-12-14T23:44:08.704Z,54.80
2017-12-14T23:46:34.465Z,60.73
2017-12-14T23:49:00.253Z,58.03
2017-12-14T23:51:26.006Z,52.87
2017-12-14T23:53:51.775Z,57.67
2017-12-14T23:56:17.535Z,55.83
2017-12-14T23:58:43.321Z,52.93
